Time;durP1;ratioP1;P1;durP2;ratioP2;P2;SDS_P1;SDS_P2;PMS_P1;PMS_P2;Temp;Humidity;BMP_temperature;BMP_pressure;BME280_temperature;BME280_humidity;BME280_pressure;Samples;Min_cycle;Max_cycle;Signal;HPM_P1;HPM_P2
2021/08/30 00:02:13;;;;;;;7.70;7.07;;;15.20;99.90;;;;;;4976955;28;20455;-89
2021/08/30 00:07:40;;;;;;;9.43;8.63;;;15.20;99.90;;;;;;4977373;28;20463;-89
2021/08/30 00:10:17;;;;;;;9.23;8.43;;;15.20;99.90;;;;;;4976790;28;20472;-89
2021/08/30 00:12:56;;;;;;;8.67;7.87;;;15.20;99.90;;;;;;4986349;28;20455;-89
2021/08/30 00:15:35;;;;;;;8.77;7.97;;;15.20;99.90;;;;;;4998312;28;20452;-89
2021/08/30 00:18:14;;;;;;;9.17;8.37;;;15.20;99.90;;;;;;4988574;28;20476;-91
2021/08/30 00:20:45;;;;;;;10.03;9.07;;;15.30;99.90;;;;;;4996955;28;20452;-89
2021/08/30 00:23:12;;;;;;;10.63;9.73;;;15.30;99.90;;;;;;4992747;28;20479;-89
2021/08/30 00:25:38;;;;;;;12.13;10.97;;;15.30;99.90;;;;;;4984165;28;20449;-90
2021/08/30 00:28:05;;;;;;;12.37;11.10;;;15.30;99.90;;;;;;4994262;28;20455;-89
2021/08/30 00:30:32;;;;;;;10.00;9.10;;;15.30;99.90;;;;;;4979585;28;20864;-89
2021/08/30 00:32:59;;;;;;;13.07;10.07;;;15.30;99.90;;;;;;4978448;28;20452;-89
2021/08/30 00:35:26;;;;;;;10.70;9.80;;;15.30;99.90;;;;;;4977349;28;20466;-89
2021/08/30 00:37:54;;;;;;;12.00;11.00;;;15.30;99.90;;;;;;4975779;28;20510;-89
2021/08/30 00:40:22;;;;;;;11.93;10.93;;;15.30;99.90;;;;;;4977875;28;20464;-89
2021/08/30 00:42:49;;;;;;;11.70;10.70;;;15.30;99.90;;;;;;4980139;28;20867;-90
2021/08/30 00:45:17;;;;;;;12.77;11.57;;;15.40;99.90;;;;;;4975600;28;20496;-90
2021/08/30 00:47:46;;;;;;;11.67;10.60;;;15.30;99.90;;;;;;4975912;28;20973;-90
2021/08/30 00:50:15;;;;;;;11.53;10.50;;;15.30;99.90;;;;;;4974569;28;20445;-90
2021/08/30 00:52:44;;;;;;;12.53;11.00;;;15.30;99.90;;;;;;4973443;28;20460;-90
2021/08/30 00:55:14;;;;;;;13.47;12.07;;;15.30;99.90;;;;;;4973567;28;21012;-90
2021/08/30 00:57:41;;;;;;;13.67;12.37;;;15.40;99.90;;;;;;4973653;28;20484;-90
2021/08/30 01:00:09;;;;;;;13.93;12.60;;;15.40;99.90;;;;;;4973792;28;20452;-90
2021/08/30 01:02:38;;;;;;;13.60;12.50;;;15.40;99.90;;;;;;4974059;28;20492;-88
2021/08/30 01:05:06;;;;;;;12.83;11.63;;;15.40;99.90;;;;;;4974591;28;20495;-90
2021/08/30 01:07:43;;;;;;;12.70;11.50;;;15.40;99.90;;;;;;4976570;28;20502;-90
2021/08/30 01:10:17;;;;;;;12.10;11.10;;;15.40;99.90;;;;;;4988056;28;20467;-90
2021/08/30 01:12:49;;;;;;;12.87;11.77;;;15.40;99.90;;;;;;4975719;28;20463;-91
2021/08/30 01:15:21;;;;;;;12.53;11.47;;;15.40;99.90;;;;;;4977894;28;20873;-91
2021/08/30 01:17:50;;;;;;;13.10;11.90;;;15.40;99.90;;;;;;4977157;28;20491;-90
2021/08/30 01:20:26;;;;;;;12.53;11.33;;;15.40;99.90;;;;;;4977592;28;20538;-90
2021/08/30 01:22:56;;;;;;;12.20;11.13;;;15.40;99.90;;;;;;4977830;28;20456;-88
2021/08/30 01:25:26;;;;;;;12.73;11.63;;;15.40;99.90;;;;;;4980875;28;20480;-91
2021/08/30 01:27:55;;;;;;;12.93;11.77;;;15.50;99.90;;;;;;4977760;28;20515;-90
2021/08/30 01:30:26;;;;;;;13.40;12.20;;;15.50;99.90;;;;;;4979770;28;20452;-90
2021/08/30 01:32:58;;;;;;;12.53;11.43;;;15.50;99.90;;;;;;4987869;28;20519;-91
2021/08/30 01:35:28;;;;;;;12.00;10.90;;;15.50;99.90;;;;;;4998253;28;20441;-92
2021/08/30 01:37:57;;;;;;;12.33;11.13;;;15.50;99.90;;;;;;4993980;28;20551;-89
2021/08/30 01:40:27;;;;;;;12.13;10.93;;;15.50;99.90;;;;;;4977664;28;20545;-89
2021/08/30 01:42:56;;;;;;;12.03;11.03;;;15.50;99.90;;;;;;4977669;28;20455;-89
2021/08/30 01:45:24;;;;;;;11.73;10.83;;;15.50;99.90;;;;;;4977711;28;21000;-88
2021/08/30 01:47:56;;;;;;;11.20;10.10;;;15.50;99.90;;;;;;4977316;28;20455;-88
2021/08/30 01:50:28;;;;;;;9.60;8.80;;;15.60;99.90;;;;;;4976891;28;20463;-89
2021/08/30 01:52:57;;;;;;;9.73;8.93;;;15.60;99.90;;;;;;4976888;28;20459;-89
2021/08/30 01:55:31;;;;;;;10.10;9.20;;;15.60;99.90;;;;;;4981038;28;20480;-88
2021/08/30 02:01:01;;;;;;;10.40;9.50;;;15.60;99.90;;;;;;4941700;29;20469;-92
2021/08/30 02:03:33;;;;;;;9.80;9.00;;;15.60;99.90;;;;;;4943251;29;20529;-88
2021/08/30 02:06:02;;;;;;;9.87;9.07;;;15.60;99.90;;;;;;4955620;28;20460;-88
2021/08/30 02:08:33;;;;;;;9.20;8.50;;;15.70;99.90;;;;;;4976631;28;20463;-88
2021/08/30 02:11:03;;;;;;;9.47;8.67;;;15.60;99.90;;;;;;4977251;28;20456;-90
2021/08/30 02:13:30;;;;;;;10.60;9.53;;;15.60;99.90;;;;;;4976439;28;20471;-89
2021/08/30 02:15:58;;;;;;;10.80;9.90;;;15.70;99.90;;;;;;4978586;28;20436;-89
2021/08/30 02:18:33;;;;;;;10.17;9.13;;;15.70;99.90;;;;;;4977012;28;20515;-90
2021/08/30 02:21:09;;;;;;;8.97;8.23;;;15.70;99.90;;;;;;4993146;28;20511;-89
2021/08/30 02:23:41;;;;;;;9.07;8.27;;;15.70;99.90;;;;;;4983741;28;20562;-89
2021/08/30 02:26:14;;;;;;;10.37;9.57;;;15.70;99.90;;;;;;4979247;28;20488;-89
2021/08/30 02:28:44;;;;;;;10.00;9.10;;;15.70;99.90;;;;;;4991402;28;20444;-88
2021/08/30 02:31:12;;;;;;;11.07;10.17;;;15.60;99.90;;;;;;4999803;28;20479;-89
2021/08/30 02:33:42;;;;;;;12.17;11.07;;;15.50;99.90;;;;;;4989110;28;20472;-89
2021/08/30 02:36:10;;;;;;;11.47;10.47;;;15.50;99.90;;;;;;4996068;28;20457;-89
2021/08/30 02:38:39;;;;;;;11.10;10.10;;;15.50;99.90;;;;;;4989281;28;20481;-89
2021/08/30 02:41:08;;;;;;;13.90;10.53;;;15.40;99.90;;;;;;4981653;28;20522;-89
2021/08/30 02:43:36;;;;;;;11.00;9.80;;;15.40;99.90;;;;;;4979503;28;20488;-90
2021/08/30 02:46:03;;;;;;;9.90;9.00;;;15.40;99.90;;;;;;4986104;28;20456;-89
2021/08/30 02:48:33;;;;;;;12.23;11.13;;;15.30;99.90;;;;;;4978305;28;20439;-90
2021/08/30 02:51:02;;;;;;;11.33;10.23;;;15.30;99.90;;;;;;4981483;28;20467;-90
2021/08/30 02:53:29;;;;;;;10.90;10.00;;;15.30;99.90;;;;;;4979270;28;20479;-89
2021/08/30 02:55:57;;;;;;;11.47;10.37;;;15.30;99.90;;;;;;4976567;28;20452;-89
2021/08/30 02:58:26;;;;;;;11.23;10.30;;;15.30;99.90;;;;;;4976098;28;20486;-89
2021/08/30 03:00:53;;;;;;;11.20;10.23;;;15.30;99.90;;;;;;4975491;28;21023;-90
2021/08/30 03:03:21;;;;;;;12.53;11.43;;;15.30;99.90;;;;;;4975395;28;20480;-90
2021/08/30 03:05:52;;;;;;;10.53;9.53;;;15.30;99.90;;;;;;4975146;28;20445;-90
2021/08/30 03:08:22;;;;;;;11.90;10.70;;;15.20;99.90;;;;;;4989212;28;20483;-90
2021/08/30 03:10:50;;;;;;;11.23;10.10;;;15.20;99.90;;;;;;4987358;28;20535;-90
2021/08/30 03:13:19;;;;;;;11.30;10.20;;;15.20;99.90;;;;;;4976425;28;20483;-89
2021/08/30 03:15:49;;;;;;;10.57;9.57;;;15.20;99.90;;;;;;4980527;28;20873;-89
2021/08/30 03:18:18;;;;;;;11.20;10.20;;;15.20;99.90;;;;;;4976555;28;21000;-90
2021/08/30 03:20:46;;;;;;;11.67;9.07;;;15.20;99.90;;;;;;4980352;28;20491;-89
2021/08/30 03:23:17;;;;;;;10.23;9.33;;;15.30;99.90;;;;;;4999126;28;20512;-89
2021/08/30 03:25:46;;;;;;;10.67;9.77;;;15.20;99.90;;;;;;4978602;28;20448;-89
2021/08/30 03:28:14;;;;;;;9.13;8.33;;;15.20;99.90;;;;;;4977696;28;20440;-90
2021/08/30 03:30:42;;;;;;;9.80;8.90;;;15.20;99.90;;;;;;4979024;28;20464;-90
2021/08/30 03:33:10;;;;;;;9.77;8.97;;;15.20;99.90;;;;;;4978333;28;21003;-90
2021/08/30 03:35:37;;;;;;;8.47;7.77;;;15.10;99.90;;;;;;4976904;28;20453;-90
2021/08/30 03:38:05;;;;;;;8.53;7.83;;;15.20;99.90;;;;;;4980879;28;20511;-90
2021/08/30 03:40:33;;;;;;;8.70;8.00;;;15.20;99.90;;;;;;4978383;28;20943;-90
2021/08/30 03:43:03;;;;;;;9.20;8.40;;;15.20;99.90;;;;;;4978021;28;20987;-90
2021/08/30 03:45:31;;;;;;;10.17;9.20;;;15.20;99.90;;;;;;4992927;22;21008;-88
2021/08/30 03:47:59;;;;;;;10.93;9.93;;;15.20;99.90;;;;;;4979074;28;20455;-88
2021/08/30 03:50:26;;;;;;;9.50;8.70;;;15.20;99.90;;;;;;4977716;28;20455;-90
2021/08/30 03:52:54;;;;;;;10.30;9.30;;;15.20;99.90;;;;;;4980120;28;20456;-90
2021/08/30 03:55:21;;;;;;;10.93;9.83;;;15.20;99.90;;;;;;4976683;28;20468;-88
2021/08/30 03:57:51;;;;;;;10.60;9.30;;;15.20;99.90;;;;;;4977312;28;20484;-88
2021/08/30 04:00:19;;;;;;;10.83;9.83;;;15.20;99.90;;;;;;4976385;28;20439;-88
2021/08/30 04:02:46;;;;;;;11.27;10.17;;;15.20;99.90;;;;;;4976915;28;20442;-88
2021/08/30 04:05:21;;;;;;;11.00;9.97;;;15.20;99.90;;;;;;4975192;28;20460;-86
2021/08/30 04:07:48;;;;;;;11.00;10.00;;;15.10;99.90;;;;;;4978733;28;20458;-87
2021/08/30 04:10:15;;;;;;;10.40;9.50;;;15.20;99.90;;;;;;4980020;28;20451;-88
2021/08/30 04:12:42;;;;;;;11.13;10.03;;;15.20;99.90;;;;;;4977311;28;20436;-88
2021/08/30 04:15:09;;;;;;;11.07;9.97;;;15.20;99.90;;;;;;4975963;28;20482;-88
2021/08/30 04:17:37;;;;;;;11.10;10.20;;;15.20;99.90;;;;;;4974696;28;20483;-87
2021/08/30 04:20:05;;;;;;;11.80;10.60;;;15.20;99.90;;;;;;4974982;28;20432;-89
2021/08/30 04:22:35;;;;;;;12.57;11.30;;;15.20;99.90;;;;;;4983548;28;20432;-87
2021/08/30 04:25:01;;;;;;;12.83;11.53;;;15.20;99.90;;;;;;4997986;28;20448;-88
2021/08/30 04:27:28;;;;;;;12.37;11.17;;;15.20;99.90;;;;;;4988271;28;20957;-88
2021/08/30 04:29:55;;;;;;;12.27;11.03;;;15.30;99.90;;;;;;4975317;28;20467;-89
2021/08/30 04:32:22;;;;;;;13.77;12.20;;;15.20;99.90;;;;;;4974782;28;20482;-88
2021/08/30 04:34:50;;;;;;;14.40;12.87;;;15.20;99.90;;;;;;4975870;28;20463;-88
2021/08/30 04:37:18;;;;;;;13.27;11.97;;;15.30;99.90;;;;;;4976551;28;20976;-89
2021/08/30 04:39:45;;;;;;;14.93;13.50;;;15.30;99.90;;;;;;4976487;28;20471;-90
2021/08/30 04:42:12;;;;;;;15.63;13.47;;;15.30;99.90;;;;;;4975104;28;20440;-90
2021/08/30 04:44:38;;;;;;;15.80;14.17;;;15.30;99.90;;;;;;4975032;28;20494;-90
2021/08/30 04:47:06;;;;;;;14.73;13.00;;;15.30;99.90;;;;;;4975373;28;20455;-89
2021/08/30 04:49:34;;;;;;;15.73;14.13;;;15.30;99.90;;;;;;4980752;28;20450;-88
2021/08/30 04:52:02;;;;;;;16.80;13.07;;;15.30;99.90;;;;;;4979122;28;20440;-88
2021/08/30 04:54:29;;;;;;;15.43;13.83;;;15.30;99.90;;;;;;4978547;28;20482;-89
2021/08/30 04:56:55;;;;;;;15.67;13.63;;;15.30;99.90;;;;;;4978619;28;20967;-88
2021/08/30 04:59:22;;;;;;;16.40;14.77;;;15.30;99.90;;;;;;4983433;28;20502;-89
2021/08/30 05:01:49;;;;;;;15.57;13.43;;;15.20;99.90;;;;;;4977781;28;20451;-89
2021/08/30 05:04:16;;;;;;;15.43;13.83;;;15.30;99.90;;;;;;4977253;28;20456;-88
2021/08/30 05:06:42;;;;;;;14.97;13.40;;;15.30;99.90;;;;;;4978229;28;20448;-87
2021/08/30 05:09:10;;;;;;;13.90;11.90;;;15.30;99.90;;;;;;4977444;28;20436;-87
2021/08/30 05:11:38;;;;;;;13.70;12.37;;;15.30;99.90;;;;;;4981464;28;20544;-86
2021/08/30 05:14:05;;;;;;;14.17;12.77;;;15.30;99.90;;;;;;4979204;28;20822;-88
2021/08/30 05:16:32;;;;;;;11.50;10.40;;;15.30;99.90;;;;;;4977791;28;20459;-90
2021/08/30 05:18:58;;;;;;;12.70;11.40;;;15.40;99.90;;;;;;4978888;28;20498;-88
2021/08/30 05:21:25;;;;;;;14.83;13.23;;;15.40;99.90;;;;;;4978116;28;20937;-88
2021/08/30 05:23:52;;;;;;;13.93;11.10;;;15.30;99.90;;;;;;4985622;28;20455;-88
2021/08/30 05:26:20;;;;;;;14.27;12.23;;;15.30;99.90;;;;;;4990844;28;20420;-88
2021/08/30 05:28:47;;;;;;;14.17;12.87;;;15.30;99.90;;;;;;4990491;28;20440;-88
2021/08/30 05:31:14;;;;;;;14.77;12.90;;;15.30;99.90;;;;;;4985412;28;20444;-88
2021/08/30 05:33:41;;;;;;;16.53;14.83;;;15.30;99.90;;;;;;4989500;28;20502;-89
2021/08/30 05:36:08;;;;;;;13.97;12.47;;;15.30;99.90;;;;;;4980078;28;20455;-90
2021/08/30 05:38:35;;;;;;;14.33;12.83;;;15.40;99.90;;;;;;4983523;28;20487;-89
2021/08/30 05:41:01;;;;;;;16.43;13.70;;;15.40;99.90;;;;;;4979500;28;20448;-90
2021/08/30 05:43:30;;;;;;;13.97;12.57;;;15.40;99.90;;;;;;4978309;28;20451;-89
2021/08/30 05:45:56;;;;;;;14.37;12.97;;;15.40;99.90;;;;;;4980626;28;20459;-89
2021/08/30 05:48:23;;;;;;;14.53;12.67;;;15.40;99.90;;;;;;4981699;28;20447;-89
2021/08/30 05:50:50;;;;;;;12.83;11.63;;;15.40;99.90;;;;;;4978246;28;20440;-88
2021/08/30 05:53:16;;;;;;;15.00;13.40;;;15.40;99.90;;;;;;4980342;28;20452;-89
2021/08/30 05:55:43;;;;;;;14.57;13.07;;;15.50;99.90;;;;;;4983137;28;20482;-88
2021/08/30 05:58:10;;;;;;;13.00;11.70;;;15.50;99.90;;;;;;4976877;28;20500;-88
2021/08/30 06:00:38;;;;;;;13.63;12.23;;;15.50;99.90;;;;;;4977415;28;20467;-88
2021/08/30 06:03:05;;;;;;;15.33;13.73;;;15.50;99.90;;;;;;4978057;28;20444;-89
2021/08/30 06:05:31;;;;;;;14.73;13.20;;;15.50;99.90;;;;;;4976781;28;20472;-88
2021/08/30 06:07:58;;;;;;;14.87;13.47;;;15.50;99.90;;;;;;4976980;28;20938;-89
2021/08/30 06:10:25;;;;;;;15.47;13.90;;;15.50;99.90;;;;;;4980187;28;20441;-89
2021/08/30 06:12:52;;;;;;;14.03;12.63;;;15.60;99.90;;;;;;4986502;28;20456;-88
2021/08/30 06:15:19;;;;;;;14.80;13.30;;;15.60;99.90;;;;;;4983630;28;20471;-89
2021/08/30 06:17:47;;;;;;;15.70;14.20;;;15.70;99.90;;;;;;4980634;28;20462;-88
2021/08/30 06:20:14;;;;;;;15.27;13.30;;;15.80;99.90;;;;;;4986094;28;20448;-89
2021/08/30 06:22:40;;;;;;;16.40;13.93;;;15.90;99.90;;;;;;4988345;28;20425;-88
2021/08/30 06:25:08;;;;;;;14.47;12.90;;;16.00;99.90;;;;;;4999938;28;20528;-88
2021/08/30 06:27:35;;;;;;;13.30;12.00;;;16.10;99.90;;;;;;4984154;28;20796;-89
2021/08/30 06:30:02;;;;;;;11.80;10.80;;;16.30;99.90;;;;;;4977692;28;20452;-88
2021/08/30 06:32:28;;;;;;;14.13;12.73;;;16.40;99.90;;;;;;4984153;28;20443;-87
2021/08/30 06:34:57;;;;;;;12.80;11.70;;;16.50;99.90;;;;;;4978570;28;20483;-88
2021/08/30 06:37:23;;;;;;;13.97;12.67;;;16.60;99.90;;;;;;4979106;28;20455;-89
2021/08/30 06:39:52;;;;;;;13.67;12.47;;;16.70;99.90;;;;;;4976641;28;20499;-88
2021/08/30 06:42:19;;;;;;;12.57;11.37;;;16.80;99.90;;;;;;4978281;28;20479;-88
2021/08/30 06:44:45;;;;;;;11.07;10.07;;;16.80;99.90;;;;;;4987828;28;20485;-84
2021/08/30 06:47:12;;;;;;;12.47;11.20;;;16.90;99.90;;;;;;4981151;28;20939;-86
2021/08/30 06:49:39;;;;;;;12.00;11.00;;;16.90;99.90;;;;;;4994656;28;20448;-86
2021/08/30 06:52:07;;;;;;;11.60;10.60;;;16.80;99.90;;;;;;4986412;28;20811;-86
2021/08/30 06:54:35;;;;;;;12.10;11.00;;;16.90;99.90;;;;;;4975060;28;20546;-88
2021/08/30 06:57:02;;;;;;;12.73;11.53;;;16.90;99.90;;;;;;4976008;28;20459;-85
2021/08/30 06:59:28;;;;;;;11.90;10.67;;;17.00;99.90;;;;;;4976022;28;20494;-86
2021/08/30 07:01:56;;;;;;;12.17;11.07;;;17.20;99.90;;;;;;4978852;28;20874;-85
2021/08/30 07:04:23;;;;;;;12.00;10.90;;;17.20;99.90;;;;;;4975427;28;20973;-88
2021/08/30 07:06:49;;;;;;;12.13;10.97;;;17.40;99.90;;;;;;4975883;28;20470;-88
2021/08/30 07:09:18;;;;;;;12.87;11.70;;;17.50;99.90;;;;;;4975239;28;20453;-88
2021/08/30 07:11:44;;;;;;;11.37;10.27;;;17.60;99.90;;;;;;4974807;28;20463;-88
2021/08/30 07:14:11;;;;;;;13.97;9.70;;;17.80;99.90;;;;;;4975973;28;20467;-88
2021/08/30 07:16:38;;;;;;;11.23;10.23;;;17.80;99.90;;;;;;4976100;28;20447;-91
2021/08/30 07:19:10;;;;;;;14.40;10.43;;;18.00;99.90;;;;;;4974574;28;20967;-87
2021/08/30 07:21:37;;;;;;;12.20;11.10;;;18.20;99.90;;;;;;4975437;28;21001;-87
2021/08/30 07:24:04;;;;;;;10.10;9.20;;;18.50;99.90;;;;;;4975144;28;20469;-87
2021/08/30 07:26:32;;;;;;;9.93;9.13;;;18.90;99.90;;;;;;4975066;28;20804;-88
2021/08/30 07:28:59;;;;;;;9.50;8.77;;;18.90;99.90;;;;;;4974805;28;20458;-88
2021/08/30 07:31:26;;;;;;;10.13;9.23;;;18.80;99.90;;;;;;4975214;28;20448;-87
2021/08/30 07:33:53;;;;;;;10.50;9.60;;;18.60;99.90;;;;;;4974652;28;20832;-88
2021/08/30 07:36:20;;;;;;;11.20;10.10;;;18.40;99.90;;;;;;4974626;28;20449;-87
2021/08/30 07:38:47;;;;;;;10.57;9.67;;;18.20;99.90;;;;;;4974447;28;21006;-87
2021/08/30 07:41:14;;;;;;;9.37;8.57;;;18.10;99.90;;;;;;4975870;28;20445;-87
2021/08/30 07:43:42;;;;;;;10.10;9.10;;;18.10;99.90;;;;;;4975423;28;20503;-88
2021/08/30 07:46:08;;;;;;;9.67;8.77;;;18.10;99.90;;;;;;4977039;28;20453;-87
2021/08/30 07:48:35;;;;;;;11.40;9.47;;;18.10;99.90;;;;;;4977370;28;20453;-87
2021/08/30 07:51:02;;;;;;;10.63;9.77;;;18.10;99.90;;;;;;4976182;28;20934;-88
2021/08/30 07:53:29;;;;;;;10.60;9.70;;;18.20;99.90;;;;;;4981661;28;20434;-88
2021/08/30 07:55:57;;;;;;;10.07;9.07;;;18.20;99.90;;;;;;4974949;28;20448;-88
2021/08/30 07:58:23;;;;;;;10.43;9.53;;;18.20;99.90;;;;;;4974829;28;20995;-88
2021/08/30 08:00:52;;;;;;;9.87;8.97;;;18.10;99.90;;;;;;4974647;28;20519;-87
2021/08/30 08:03:19;;;;;;;11.03;9.87;;;18.10;99.90;;;;;;4974833;28;20527;-88
2021/08/30 08:05:45;;;;;;;11.37;10.27;;;18.00;99.90;;;;;;4975026;28;20980;-88
2021/08/30 08:08:12;;;;;;;10.03;9.13;;;17.90;99.90;;;;;;4974454;28;20458;-87
2021/08/30 08:10:39;;;;;;;12.73;11.43;;;17.80;99.90;;;;;;4975465;28;20459;-88
2021/08/30 08:13:06;;;;;;;11.70;10.77;;;17.80;99.90;;;;;;4974930;28;20525;-88
2021/08/30 08:15:33;;;;;;;11.70;10.50;;;17.70;99.90;;;;;;4974187;28;20477;-88
2021/08/30 08:18:01;;;;;;;9.13;8.33;;;17.80;99.90;;;;;;4973776;28;20462;-87
2021/08/30 08:20:30;;;;;;;10.07;9.10;;;17.80;99.90;;;;;;4979411;28;20484;-87
2021/08/30 08:22:57;;;;;;;10.23;9.33;;;17.70;99.90;;;;;;4995284;28;20432;-87
2021/08/30 08:25:24;;;;;;;11.53;10.53;;;17.70;99.90;;;;;;5000271;28;20468;-87
2021/08/30 08:27:51;;;;;;;12.10;11.00;;;17.70;99.90;;;;;;4986595;28;20467;-87
2021/08/30 08:30:17;;;;;;;12.77;9.60;;;17.70;99.90;;;;;;4979271;28;20452;-87
2021/08/30 08:32:46;;;;;;;10.43;9.53;;;17.60;99.90;;;;;;4990376;28;20479;-87
2021/08/30 08:35:14;;;;;;;10.90;9.80;;;17.60;99.90;;;;;;4982519;28;20507;-88
2021/08/30 08:37:41;;;;;;;10.20;9.20;;;17.70;99.90;;;;;;4978905;28;20463;-87
2021/08/30 08:40:09;;;;;;;10.33;9.40;;;17.70;99.90;;;;;;4982003;28;20581;-87
2021/08/30 08:42:37;;;;;;;9.77;8.97;;;17.80;99.90;;;;;;4979103;28;20448;-86
2021/08/30 08:45:06;;;;;;;8.17;7.47;;;17.70;99.90;;;;;;4979831;28;20544;-87
2021/08/30 08:47:36;;;;;;;7.40;6.80;;;17.60;99.90;;;;;;4979938;28;20467;-88
2021/08/30 08:50:03;;;;;;;8.70;7.90;;;17.40;99.90;;;;;;4978769;28;20554;-87
2021/08/30 08:52:33;;;;;;;9.30;8.50;;;17.20;99.90;;;;;;4982356;28;20436;-86
2021/08/30 08:55:00;;;;;;;9.90;8.90;;;17.10;99.90;;;;;;4996172;28;20468;-87
2021/08/30 08:57:27;;;;;;;8.87;8.13;;;17.30;99.90;;;;;;4978968;28;20456;-88
2021/08/30 08:59:58;;;;;;;10.13;9.23;;;17.60;99.90;;;;;;4977657;28;20484;-87
2021/08/30 09:02:26;;;;;;;8.93;8.23;;;17.90;99.90;;;;;;4977274;28;20807;-87
2021/08/30 09:04:54;;;;;;;8.57;7.77;;;19.10;99.90;;;;;;4977937;28;20466;-88
2021/08/30 09:07:28;;;;;;;11.17;10.20;;;20.30;99.90;;;;;;4977937;28;20450;-88
2021/08/30 09:09:59;;;;;;;7.83;7.13;;;20.60;99.90;;;;;;4977715;28;20821;-88
2021/08/30 09:12:26;;;;;;;8.93;8.13;;;20.90;99.90;;;;;;4978004;28;20455;-88
2021/08/30 09:14:53;;;;;;;9.60;8.80;;;21.20;99.90;;;;;;4985051;28;20472;-88
2021/08/30 09:17:19;;;;;;;7.83;7.13;;;21.20;99.90;;;;;;4980180;28;20452;-88
2021/08/30 09:19:52;;;;;;;8.97;8.17;;;21.20;99.90;;;;;;4977269;28;20495;-88
2021/08/30 09:22:29;;;;;;;7.97;7.37;;;21.30;99.90;;;;;;4978136;28;20459;-88
2021/08/30 09:25:06;;;;;;;9.03;8.23;;;21.10;99.90;;;;;;4977835;28;20512;-86
2021/08/30 09:27:35;;;;;;;9.20;8.40;;;20.80;99.90;;;;;;4977917;28;20444;-86
2021/08/30 09:30:04;;;;;;;9.40;8.60;;;20.50;99.90;;;;;;4977644;28;20448;-88
2021/08/30 09:32:33;;;;;;;9.37;8.30;;;20.40;99.90;;;;;;4977558;28;20445;-87
2021/08/30 09:35:01;;;;;;;10.10;9.20;;;20.10;99.90;;;;;;4977940;28;20474;-88
2021/08/30 09:37:29;;;;;;;10.93;9.83;;;19.90;99.90;;;;;;4978955;28;20514;-88
2021/08/30 09:39:57;;;;;;;10.50;9.60;;;19.80;99.90;;;;;;4978601;28;20545;-87
2021/08/30 09:42:27;;;;;;;11.60;10.50;;;19.70;99.90;;;;;;4977818;28;20451;-88
2021/08/30 09:48:30;;;;;;;11.90;10.90;;;19.30;99.90;;;;;;5002179;28;20502;-88
2021/08/30 10:12:26;;;;;;;12.47;11.33;;;17.60;99.90;;;;;;4962883;29;20441;-87
2021/08/30 10:28:42;;;;;;;12.87;11.53;;;19.30;99.90;;;;;;4901963;29;20447;-88
2021/08/30 10:39:01;;;;;;;14.37;13.07;;;18.20;99.90;;;;;;4859399;29;20546;-88
2021/08/30 10:56:00;;;;;;;12.00;10.90;;;17.80;99.90;;;;;;4869219;29;20465;-88
2021/08/30 10:59:14;;;;;;;;;;;;;;;;;;;;;
2021/08/30 11:02:03;;;;;;;14.83;11.67;;;17.60;99.90;;;;;;4935407;29;20428;-88
2021/08/30 11:04:45;;;;;;;10.83;9.73;;;17.50;99.90;;;;;;4931448;29;20475;-88
2021/08/30 11:08:08;;;;;;;11.27;10.17;;;17.50;99.90;;;;;;5010017;28;20446;-87
2021/08/30 11:14:16;;;;;;;11.37;9.00;;;18.10;99.90;;;;;;4953181;28;20518;-86
2021/08/30 11:20:59;;;;;;;9.40;8.60;;;18.90;99.90;;;;;;4933794;29;20472;-89
2021/08/30 12:02:44;;;;;;;12.53;11.53;;;20.10;99.90;;;;;;4786394;30;20478;-88
2021/08/30 12:05:51;;;;;;;13.93;11.50;;;19.70;99.90;;;;;;4840837;29;20857;-88
2021/08/30 12:08:32;;;;;;;12.53;11.30;;;19.50;99.90;;;;;;4907174;29;20849;-88
2021/08/30 12:14:33;;;;;;;14.00;12.13;;;19.20;99.90;;;;;;4931506;28;20466;-87
2021/08/30 12:17:41;;;;;;;15.87;13.47;;;18.90;99.90;;;;;;4966467;28;20454;-88
2021/08/30 12:24:25;;;;;;;12.70;11.43;;;18.90;99.90;;;;;;5013037;28;20456;-87
2021/08/30 12:30:23;;;;;;;11.60;10.60;;;19.10;99.90;;;;;;4964510;28;20438;-87
2021/08/30 12:33:07;;;;;;;14.33;12.93;;;19.00;99.90;;;;;;4996968;28;20453;-89
2021/08/30 12:35:37;;;;;;;12.63;11.23;;;18.90;99.90;;;;;;5006925;28;20482;-85
2021/08/30 12:38:06;;;;;;;14.23;12.73;;;18.70;99.90;;;;;;5002075;28;20446;-87
2021/08/30 12:40:34;;;;;;;14.90;13.30;;;18.60;99.90;;;;;;5005007;28;20486;-87
2021/08/30 12:43:01;;;;;;;14.07;12.77;;;18.60;99.90;;;;;;5015913;28;20454;-87
2021/08/30 12:45:30;;;;;;;12.33;11.13;;;18.60;99.90;;;;;;5009313;28;20997;-88
2021/08/30 12:47:57;;;;;;;17.43;12.03;;;18.70;99.90;;;;;;5007410;28;20434;-88
2021/08/30 12:50:28;;;;;;;12.87;11.73;;;18.80;99.90;;;;;;5004212;28;20982;-89
2021/08/30 12:52:55;;;;;;;14.90;13.43;;;18.80;99.90;;;;;;5004297;28;20521;-88
2021/08/30 12:55:32;;;;;;;13.70;12.40;;;18.80;99.90;;;;;;5001747;28;20465;-89
2021/08/30 12:58:00;;;;;;;14.67;13.37;;;18.80;99.90;;;;;;5004461;28;20558;-91
2021/08/30 13:00:26;;;;;;;13.47;12.27;;;18.80;99.90;;;;;;5001515;28;20514;-89
2021/08/30 13:02:55;;;;;;;13.23;11.93;;;18.70;99.90;;;;;;5005044;28;20503;-88
2021/08/30 13:05:24;;;;;;;13.67;12.50;;;18.80;99.90;;;;;;5009631;28;20463;-88
2021/08/30 13:07:52;;;;;;;12.43;11.33;;;18.90;99.90;;;;;;5013849;28;20453;-89
2021/08/30 13:10:21;;;;;;;12.20;11.10;;;19.00;99.90;;;;;;5008899;28;20819;-88
2021/08/30 13:12:48;;;;;;;12.60;11.60;;;19.10;99.90;;;;;;5005997;28;20451;-88
2021/08/30 13:15:16;;;;;;;12.40;11.37;;;19.30;99.90;;;;;;5007950;28;20569;-87
2021/08/30 13:17:43;;;;;;;12.83;11.67;;;19.50;99.90;;;;;;5019073;28;20454;-88
2021/08/30 13:20:13;;;;;;;13.60;12.30;;;19.70;99.90;;;;;;5011077;28;20475;-88
2021/08/30 13:22:41;;;;;;;13.40;11.77;;;19.90;99.90;;;;;;5007072;28;20871;-88
2021/08/30 13:25:12;;;;;;;11.63;10.53;;;20.10;99.90;;;;;;5008249;28;20512;-88
2021/08/30 13:27:39;;;;;;;12.53;11.43;;;20.00;99.90;;;;;;5014651;28;20437;-89
2021/08/30 13:30:07;;;;;;;12.37;11.17;;;19.70;99.90;;;;;;5009331;28;20439;-87
2021/08/30 13:32:35;;;;;;;12.00;11.00;;;19.80;99.90;;;;;;5017805;28;20545;-90
2021/08/30 13:35:27;;;;;;;11.83;10.73;;;20.40;99.90;;;;;;5015035;28;20992;-90
2021/08/30 13:38:03;;;;;;;10.27;9.37;;;22.20;99.90;;;;;;5007411;28;20473;-89
2021/08/30 13:40:31;;;;;;;10.70;9.80;;;23.20;99.90;;;;;;5012980;28;20527;-89
2021/08/30 13:42:59;;;;;;;9.33;8.50;;;23.00;99.90;;;;;;5008639;28;20460;-89
2021/08/30 14:05:35;;;;;;;6.60;6.00;;;19.80;99.90;;;;;;4937516;29;20446;-92
2021/08/30 14:09:02;;;;;;;6.37;5.80;;;19.60;99.90;;;;;;4944655;29;20461;-89
2021/08/30 14:26:11;;;;;;;8.67;7.80;;;19.90;99.90;;;;;;4986455;28;20513;-90
2021/08/30 14:28:39;;;;;;;8.80;8.00;;;20.20;99.90;;;;;;5002743;28;20466;-86
2021/08/30 14:31:07;;;;;;;8.00;7.20;;;20.60;99.90;;;;;;5005396;28;20458;-85
2021/08/30 14:33:34;;;;;;;6.33;5.73;;;21.00;99.90;;;;;;5008070;28;20441;-85
2021/08/30 14:36:00;;;;;;;6.23;5.73;;;21.20;99.90;;;;;;5006435;28;20472;-85
2021/08/30 14:38:27;;;;;;;5.70;5.10;;;21.20;99.90;;;;;;5007038;28;20455;-86
2021/08/30 14:40:54;;;;;;;6.53;5.93;;;21.20;99.90;;;;;;5004236;28;20567;-86
2021/08/30 14:43:20;;;;;;;8.50;6.57;;;20.90;99.90;;;;;;5007823;28;20452;-86
2021/08/30 14:45:49;;;;;;;5.83;5.33;;;20.90;99.90;;;;;;5008511;28;20460;-85
2021/08/30 14:48:16;;;;;;;6.33;5.77;;;20.90;99.90;;;;;;5012253;28;20445;-85
2021/08/30 14:50:46;;;;;;;6.13;5.57;;;21.10;99.90;;;;;;5009515;28;20500;-84
2021/08/30 14:53:14;;;;;;;6.53;6.03;;;21.30;99.90;;;;;;5008469;28;20452;-86
2021/08/30 14:55:41;;;;;;;6.47;5.63;;;21.40;99.90;;;;;;5012217;28;20468;-86
2021/08/30 14:58:07;;;;;;;5.97;5.37;;;21.20;99.90;;;;;;5011853;28;20451;-86
2021/08/30 15:00:34;;;;;;;8.33;7.63;;;20.80;99.90;;;;;;5007767;28;20516;-85
2021/08/30 15:03:03;;;;;;;8.17;7.47;;;20.20;99.90;;;;;;5007278;28;20454;-85
2021/08/30 15:05:30;;;;;;;8.00;7.30;;;19.80;99.90;;;;;;5007408;28;20467;-85
2021/08/30 15:07:57;;;;;;;7.57;7.00;;;19.40;99.90;;;;;;5005995;28;20451;-84
2021/08/30 15:10:24;;;;;;;7.70;7.07;;;19.10;99.90;;;;;;5008058;28;20445;-85
2021/08/30 15:12:50;;;;;;;7.93;7.20;;;19.00;99.90;;;;;;5005579;28;20450;-85
2021/08/30 15:15:18;;;;;;;8.10;7.40;;;18.90;99.90;;;;;;5006226;28;20854;-86
2021/08/30 15:17:45;;;;;;;9.20;8.40;;;19.10;99.90;;;;;;5009331;28;20431;-86
2021/08/30 15:20:14;;;;;;;8.20;7.47;;;19.60;99.90;;;;;;5018142;28;20435;-84
2021/08/30 15:22:41;;;;;;;7.87;7.27;;;19.90;99.90;;;;;;5009395;28;20442;-85
2021/08/30 15:25:08;;;;;;;8.20;7.50;;;20.30;99.90;;;;;;5008927;28;20483;-85
2021/08/30 15:27:38;;;;;;;9.70;8.90;;;20.30;99.90;;;;;;5009237;28;20449;-85